EDT,Max TemperatureF,Mean TemperatureF,Min TemperatureF,Max Dew PointF,MeanDew PointF,Min DewpointF,Max Humidity, Mean Humidity, Min Humidity, Max Sea Level PressureIn, Mean Sea Level PressureIn, Min Sea Level PressureIn, Max VisibilityMiles, Mean VisibilityMiles, Min VisibilityMiles, Max Wind SpeedMPH, Mean Wind SpeedMPH, Max Gust SpeedMPH,PrecipitationIn, CloudCover, Events, WindDirDegrees
2011-10-1,44,41,38,41,37,34,100,87,73,30.01,29.93,29.85,10,8,3,15,5,21,0.55,8,Rain,292
2011-10-2,42,41,39,40,37,34,93,86,79,30.03,30.00,29.93,10,9,5,20,9,26,0.41,8,Rain,303
2011-10-3,47,43,39,45,40,36,100,93,85,30.20,30.09,29.96,10,7,2,12,2,20,0.31,8,Rain,207
2011-10-4,53,50,46,50,48,45,100,92,83,30.32,30.26,30.16,10,7,2,9,2,13,T,8,Rain,294
2011-10-5,68,56,43,50,47,43,100,74,48,30.38,30.34,30.29,10,6,0,10,2,14,0.00,5,Fog,305
2011-10-6,74,58,42,53,46,42,100,71,41,30.45,30.39,30.33,10,3,0,7,1,12,0.00,3,Fog,294
2011-10-7,79,63,46,54,47,42,100,64,28,30.50,30.44,30.39,10,4,0,9,1,13,0.00,4,Fog,340
2011-10-8,79,61,43,53,45,41,100,64,27,30.57,30.49,30.42,10,4,0,10,1,14,0.00,3,Fog,152
2011-10-9,82,61,40,53,43,37,100,62,23,30.53,30.47,30.37,10,5,0,15,2,20,0.00,3,Fog,160
2011-10-10,78,60,42,54,45,36,100,61,21,30.40,30.33,30.23,10,8,1,14,0,20,0.00,0,,120
2011-10-11,71,56,41,53,47,41,100,69,37,30.23,30.15,30.06,10,8,2,13,1,16,0.01,3,Rain,175
2011-10-12,66,60,54,61,56,48,100,89,78,30.04,29.88,29.83,10,6,0,13,2,18,0.46,8,Fog-Rain,332
2011-10-13,72,62,51,63,56,52,100,83,66,29.84,29.69,29.53,10,4,0,15,2,24,0.35,7,Fog-Rain,205
2011-10-14,61,54,46,55,48,38,100,76,51,29.77,29.59,29.51,10,7,0,26,9,37,0.57,7,Fog-Rain,236
2011-10-15,60,52,44,43,35,28,77,53,29,30.01,29.86,29.77,10,10,6,29,15,38,T,1,Rain,251
2011-10-16,73,61,49,43,37,32,61,45,29,30.09,29.95,29.78,10,10,10,29,12,43,0.00,1,,238
2011-10-17,70,55,39,48,39,28,86,56,26,29.96,29.89,29.79,10,10,10,17,6,23,0.00,4,,286
2011-10-18,78,59,39,55,46,36,92,64,36,29.91,29.82,29.65,10,10,6,17,2,26,0.00,3,,246
2011-10-19,69,58,46,55,51,44,89,71,52,29.63,29.42,29.24,10,9,3,26,8,37,0.27,6,Rain,162
2011-10-20,46,43,40,41,37,35,86,78,70,29.87,29.55,29.37,10,10,5,22,11,32,0.05,8,Rain,222
2011-10-21,45,43,40,37,36,36,92,81,70,30.19,30.07,29.88,10,10,5,18,6,26,T,8,Rain,242
2011-10-22,59,46,33,38,36,32,100,70,39,30.19,30.16,30.11,10,10,8,12,2,15,0.00,3,,261
2011-10-23,62,46,29,40,32,28,96,66,36,30.23,30.15,30.11,10,4,0,8,1,10,0.00,4,Fog,354
2011-10-24,65,52,39,48,43,38,100,72,43,30.19,30.13,30.04,10,10,5,21,5,26,0.03,6,Rain,276
2011-10-25,67,51,34,45,37,28,100,62,24,30.31,30.22,30.06,10,6,0,7,0,9,0.00,1,Fog,283
2011-10-26,64,50,36,52,44,34,100,74,48,30.10,29.97,29.84,10,10,7,17,4,22,0.06,5,Rain,205
2011-10-27,59,49,39,53,46,36,96,88,80,30.09,29.86,29.70,10,7,2,22,9,32,0.86,8,Rain,289
2011-10-28,44,37,29,36,31,27,100,77,53,30.21,30.14,30.08,10,6,0,16,1,21,0.10,5,Fog-Rain-Snow,337
2011-10-29,37,34,31,34,32,30,100,91,82,30.17,30.05,29.98,10,5,0,13,2,18,0.24,8,Fog-Snow,319
2011-10-30,52,41,29,36,31,28,100,72,44,30.36,30.24,30.10,10,5,0,7,0,8,0.00,5,Fog,261
2011-10-31,50,40,29,37,32,28,92,71,50,30.31,30.26,30.20,10,10,4,12,2,17,T,3,,171